Time;durP1;ratioP1;P1;durP2;ratioP2;P2;SDS_P1;SDS_P2;PMS_P1;PMS_P2;Temp;Humidity;BMP_temperature;BMP_pressure;BME280_temperature;BME280_humidity;BME280_pressure;Samples;Min_cycle;Max_cycle;Signal;HPM_P1;HPM_P2
2023/05/27 00:01:06;;;;;;;10.00;3.00;;;17.00;89.80;;;;;;5075845;28;20028;-79
2023/05/27 00:03:31;;;;;;;9.68;2.97;;;17.00;89.70;;;;;;5075368;28;20115;-79
2023/05/27 00:05:57;;;;;;;13.98;3.85;;;17.00;89.60;;;;;;5074335;28;20028;-79
2023/05/27 00:08:23;;;;;;;9.68;3.67;;;16.90;89.80;;;;;;5075233;28;20032;-79
2023/05/27 00:10:48;;;;;;;11.13;3.15;;;17.00;89.90;;;;;;5075064;28;20520;-79
2023/05/27 00:13:14;;;;;;;16.83;3.53;;;16.90;90.10;;;;;;5075896;28;20032;-80
2023/05/27 00:15:40;;;;;;;12.77;3.40;;;16.90;90.10;;;;;;5074740;28;20029;-79
2023/05/27 00:18:06;;;;;;;10.07;3.50;;;16.90;90.10;;;;;;5073824;28;20056;-80
2023/05/27 00:20:32;;;;;;;14.25;3.47;;;16.90;90.20;;;;;;5074245;28;20065;-79
2023/05/27 00:23:01;;;;;;;8.85;3.42;;;16.80;90.20;;;;;;5074409;28;20385;-80
2023/05/27 00:25:27;;;;;;;10.70;3.17;;;16.80;90.40;;;;;;5074456;28;20032;-79
2023/05/27 00:27:54;;;;;;;12.43;3.42;;;16.70;90.60;;;;;;5074016;28;20030;-79
2023/05/27 00:30:20;;;;;;;14.13;3.60;;;16.60;90.60;;;;;;5075563;28;20107;-80
2023/05/27 00:32:45;;;;;;;13.57;3.60;;;16.50;90.90;;;;;;5075102;28;20452;-80
2023/05/27 00:35:11;;;;;;;15.15;3.78;;;16.50;90.90;;;;;;5074568;28;20025;-79
2023/05/27 00:37:37;;;;;;;13.10;3.53;;;16.50;91.00;;;;;;5074444;28;20029;-80
2023/05/27 00:40:04;;;;;;;11.88;3.45;;;16.50;91.20;;;;;;5074133;28;20055;-80
2023/05/27 00:42:30;;;;;;;11.30;3.53;;;16.40;91.30;;;;;;5075970;28;20069;-80
2023/05/27 00:44:56;;;;;;;10.85;3.40;;;16.40;91.60;;;;;;5074988;28;20105;-80
2023/05/27 00:47:26;;;;;;;11.00;3.40;;;16.40;91.30;;;;;;5075357;28;20029;-80
2023/05/27 00:49:53;;;;;;;8.33;3.33;;;16.30;91.70;;;;;;5075364;28;20052;-80
2023/05/27 00:52:18;;;;;;;14.48;3.90;;;16.20;91.70;;;;;;5074633;28;20416;-80
2023/05/27 00:54:45;;;;;;;14.82;3.65;;;16.20;91.90;;;;;;5074549;28;20509;-80
2023/05/27 00:57:10;;;;;;;10.00;3.30;;;16.20;91.90;;;;;;5074015;28;20381;-80
2023/05/27 00:59:36;;;;;;;11.82;3.15;;;16.10;91.90;;;;;;5073921;28;20035;-80
2023/05/27 01:02:01;;;;;;;13.38;3.58;;;16.10;92.00;;;;;;5074789;28;20123;-80
2023/05/27 01:04:27;;;;;;;13.05;3.80;;;16.00;92.00;;;;;;5074697;28;20123;-79
2023/05/27 01:07:08;;;;;;;9.07;3.33;;;16.00;92.00;;;;;;5073622;28;20033;-80
2023/05/27 01:09:49;;;;;;;8.07;3.13;;;16.00;92.20;;;;;;5075556;28;20408;-79
2023/05/27 01:12:50;;;;;;;15.52;3.70;;;16.00;92.20;;;;;;5073889;28;20083;-82
2023/05/27 01:15:17;;;;;;;9.87;2.87;;;16.00;92.90;;;;;;5075216;28;20096;-79
2023/05/27 01:17:46;;;;;;;14.57;3.95;;;16.00;92.40;;;;;;5073784;28;20033;-78
2023/05/27 01:20:14;;;;;;;12.63;3.30;;;15.90;92.20;;;;;;5073699;28;20024;-79
2023/05/27 01:22:42;;;;;;;8.32;3.10;;;15.90;92.30;;;;;;5073786;28;20466;-80
2023/05/27 01:25:09;;;;;;;10.85;3.30;;;15.90;92.30;;;;;;5073821;28;20036;-80
2023/05/27 01:27:34;;;;;;;12.85;3.22;;;15.80;92.40;;;;;;5073645;28;20052;-79
2023/05/27 01:30:01;;;;;;;14.27;3.45;;;15.80;92.50;;;;;;5073298;28;20048;-80
2023/05/27 01:32:51;;;;;;;11.30;2.88;;;15.80;92.30;;;;;;5074340;28;20024;-79
2023/05/27 01:35:19;;;;;;;11.95;2.50;;;15.80;92.30;;;;;;5073086;28;20036;-80
2023/05/27 01:37:47;;;;;;;9.05;3.08;;;15.70;92.30;;;;;;5074136;28;20064;-79
2023/05/27 01:40:14;;;;;;;11.45;2.97;;;15.70;92.20;;;;;;5074115;28;20074;-78
2023/05/27 01:42:42;;;;;;;9.43;3.08;;;15.70;92.20;;;;;;5074280;28;20052;-79
2023/05/27 01:45:08;;;;;;;10.52;2.70;;;15.70;92.10;;;;;;5073111;28;20024;-80
2023/05/27 01:47:34;;;;;;;12.52;3.33;;;15.60;92.10;;;;;;5073133;28;20024;-79
2023/05/27 01:50:00;;;;;;;13.18;3.00;;;15.50;92.20;;;;;;5072987;28;20032;-79
2023/05/27 01:52:26;;;;;;;10.77;2.90;;;15.50;92.20;;;;;;5073576;28;20021;-80
2023/05/27 01:54:52;;;;;;;13.15;3.33;;;15.50;92.20;;;;;;5072902;28;20035;-79
2023/05/27 01:57:18;;;;;;;6.05;2.70;;;15.50;92.30;;;;;;5073246;28;20384;-79
2023/05/27 01:59:44;;;;;;;13.32;3.60;;;15.50;92.30;;;;;;5074433;28;20033;-78
2023/05/27 02:02:09;;;;;;;8.32;2.67;;;15.50;92.30;;;;;;5073629;28;20128;-78
2023/05/27 02:04:35;;;;;;;8.15;2.65;;;15.50;92.30;;;;;;5073439;28;20024;-78
2023/05/27 02:07:01;;;;;;;9.40;2.88;;;15.40;92.50;;;;;;5072768;28;20131;-79
2023/05/27 02:09:26;;;;;;;11.23;3.63;;;15.40;92.40;;;;;;5074248;28;20029;-78
2023/05/27 02:11:52;;;;;;;6.30;2.40;;;15.40;92.30;;;;;;5072413;28;20051;-79
2023/05/27 02:14:18;;;;;;;11.90;2.95;;;15.40;92.40;;;;;;5073686;28;20063;-79
2023/05/27 02:16:44;;;;;;;9.13;3.03;;;15.40;92.40;;;;;;5072763;28;20024;-79
2023/05/27 02:19:09;;;;;;;8.32;2.58;;;15.30;92.30;;;;;;5072925;28;20039;-79
2023/05/27 02:21:35;;;;;;;9.18;2.40;;;15.30;92.50;;;;;;5072961;28;20454;-78
2023/05/27 02:24:01;;;;;;;10.25;2.50;;;15.20;92.30;;;;;;5074009;28;20029;-78
2023/05/27 02:26:27;;;;;;;9.63;2.30;;;15.20;92.40;;;;;;5073151;28;20078;-78
2023/05/27 02:28:53;;;;;;;9.57;2.78;;;15.20;92.30;;;;;;5072948;28;20078;-79
2023/05/27 02:31:19;;;;;;;15.75;5.05;;;15.20;92.60;;;;;;5072663;28;20032;-78
2023/05/27 02:33:45;;;;;;;11.35;3.20;;;15.10;92.50;;;;;;5072190;28;20025;-80
2023/05/27 02:36:11;;;;;;;14.52;3.45;;;15.10;92.40;;;;;;5072185;28;20063;-79
2023/05/27 02:38:37;;;;;;;10.50;3.20;;;15.00;92.60;;;;;;5073416;28;20389;-80
2023/05/27 02:41:03;;;;;;;11.30;2.85;;;15.00;92.60;;;;;;5073359;28;20032;-81
2023/05/27 02:43:28;;;;;;;10.15;2.80;;;15.00;92.90;;;;;;5073556;28;20024;-81
2023/05/27 02:45:54;;;;;;;10.43;2.53;;;15.00;92.90;;;;;;5072062;28;20567;-81
2023/05/27 02:48:20;;;;;;;8.48;2.33;;;14.80;92.80;;;;;;5073619;28;20039;-81
2023/05/27 02:50:45;;;;;;;11.73;3.08;;;14.80;93.00;;;;;;5072745;28;20024;-81
2023/05/27 02:53:11;;;;;;;9.98;2.70;;;14.80;93.20;;;;;;5072089;28;20067;-81
2023/05/27 02:55:36;;;;;;;11.98;2.35;;;14.70;93.00;;;;;;5072349;28;20036;-81
2023/05/27 02:58:04;;;;;;;9.65;2.92;;;14.70;93.10;;;;;;5072178;28;20116;-81
2023/05/27 03:00:30;;;;;;;10.55;2.47;;;14.70;93.10;;;;;;5073661;28;20033;-81
2023/05/27 03:02:56;;;;;;;7.82;2.30;;;14.70;93.10;;;;;;5071659;28;20053;-81
2023/05/27 03:05:21;;;;;;;12.00;3.00;;;14.70;93.10;;;;;;5072658;28;20020;-80
2023/05/27 03:07:47;;;;;;;12.40;2.33;;;14.60;93.20;;;;;;5072711;28;20573;-79
2023/05/27 03:10:13;;;;;;;6.10;1.98;;;14.60;92.90;;;;;;5071756;28;20028;-80
2023/05/27 03:12:38;;;;;;;7.60;2.33;;;14.60;93.00;;;;;;5072279;28;20021;-81
2023/05/27 03:15:05;;;;;;;7.95;2.40;;;14.60;93.00;;;;;;5071582;28;20039;-81
2023/05/27 03:17:30;;;;;;;12.27;2.70;;;14.50;93.00;;;;;;5072371;28;20032;-80
2023/05/27 03:19:56;;;;;;;11.80;3.08;;;14.50;93.00;;;;;;5071706;28;20146;-81
2023/05/27 03:22:22;;;;;;;10.00;2.58;;;14.40;93.10;;;;;;5072132;28;20103;-81
2023/05/27 03:24:47;;;;;;;9.43;2.40;;;14.40;93.20;;;;;;5076976;28;20029;-81
2023/05/27 03:27:13;;;;;;;8.02;1.98;;;14.30;93.30;;;;;;5076003;28;20028;-80
2023/05/27 03:29:40;;;;;;;9.32;2.53;;;14.20;93.30;;;;;;5075890;28;20186;-80
2023/05/27 03:32:06;;;;;;;9.52;2.65;;;14.30;93.30;;;;;;5075382;28;20032;-79
2023/05/27 03:34:32;;;;;;;11.10;3.13;;;14.20;93.40;;;;;;5075692;28;20025;-79
2023/05/27 03:36:57;;;;;;;9.25;2.40;;;14.20;93.60;;;;;;5076366;28;20441;-80
2023/05/27 03:39:23;;;;;;;8.68;2.20;;;14.20;93.50;;;;;;5076432;28;20033;-80
2023/05/27 03:41:48;;;;;;;8.15;2.30;;;14.20;93.50;;;;;;5075957;28;20052;-79
2023/05/27 03:44:14;;;;;;;15.73;2.55;;;14.20;93.40;;;;;;5075255;28;20028;-79
2023/05/27 03:46:40;;;;;;;8.30;2.28;;;14.20;93.40;;;;;;5075795;28;20489;-79
2023/05/27 03:49:06;;;;;;;12.05;2.83;;;14.20;93.50;;;;;;5076154;28;20439;-79
2023/05/27 03:51:31;;;;;;;10.05;2.50;;;14.20;93.40;;;;;;5080118;28;20021;-79
2023/05/27 03:53:57;;;;;;;8.90;2.15;;;14.10;93.40;;;;;;5076163;28;20473;-79
2023/05/27 03:56:23;;;;;;;8.93;2.35;;;14.10;93.30;;;;;;5076293;28;20028;-79
2023/05/27 03:58:49;;;;;;;7.07;2.20;;;14.10;93.40;;;;;;5074663;28;20029;-78
2023/05/27 04:01:16;;;;;;;10.25;2.30;;;14.10;93.50;;;;;;5074575;28;20045;-79
2023/05/27 04:03:43;;;;;;;5.88;2.20;;;14.10;93.30;;;;;;5075660;28;20025;-78
2023/05/27 04:06:09;;;;;;;6.60;2.00;;;14.10;93.40;;;;;;5074705;28;20119;-78
2023/05/27 04:08:35;;;;;;;9.13;2.42;;;14.10;93.30;;;;;;5082375;28;20040;-80
2023/05/27 04:11:01;;;;;;;11.50;2.47;;;14.00;93.40;;;;;;5084078;28;20024;-80
2023/05/27 04:13:26;;;;;;;6.38;2.03;;;14.00;93.50;;;;;;5080241;28;20405;-79
2023/05/27 04:15:53;;;;;;;7.07;2.35;;;14.10;93.70;;;;;;5076011;28;20504;-78
2023/05/27 04:18:20;;;;;;;8.60;2.33;;;14.00;93.60;;;;;;5074343;28;20036;-79
2023/05/27 04:20:47;;;;;;;11.43;2.20;;;14.00;93.70;;;;;;5064544;28;20123;-79
2023/05/27 04:23:13;;;;;;;6.45;2.25;;;14.00;93.60;;;;;;5054264;28;20454;-80
2023/05/27 04:25:39;;;;;;;9.48;2.25;;;14.00;93.80;;;;;;5055826;28;20029;-79
2023/05/27 04:28:05;;;;;;;9.85;2.60;;;14.00;93.70;;;;;;5054070;28;20083;-80
2023/05/27 04:30:31;;;;;;;7.38;2.20;;;14.00;93.70;;;;;;5054374;28;20025;-81
2023/05/27 04:32:57;;;;;;;6.20;1.90;;;14.10;93.60;;;;;;5055264;28;20147;-82
2023/05/27 04:35:23;;;;;;;14.50;3.15;;;14.00;93.70;;;;;;5053847;28;20028;-81
2023/05/27 04:37:49;;;;;;;11.05;2.38;;;13.90;93.80;;;;;;5054732;28;20032;-80
2023/05/27 04:40:14;;;;;;;8.98;2.47;;;13.80;94.00;;;;;;5055374;28;20532;-80
2023/05/27 04:42:40;;;;;;;7.25;2.25;;;13.90;93.90;;;;;;5054118;28;20032;-81
2023/05/27 04:45:08;;;;;;;8.60;2.55;;;13.80;94.30;;;;;;5054655;28;20100;-80
2023/05/27 04:47:36;;;;;;;11.70;2.70;;;13.80;94.40;;;;;;5055113;28;20112;-79
2023/05/27 04:50:05;;;;;;;10.43;2.40;;;13.80;94.30;;;;;;5055286;28;20048;-80
2023/05/27 04:52:36;;;;;;;8.77;2.53;;;13.80;94.20;;;;;;5054524;28;20029;-80
2023/05/27 04:55:04;;;;;;;12.02;2.63;;;13.80;94.30;;;;;;5053892;28;20037;-80
2023/05/27 04:57:30;;;;;;;12.35;2.35;;;13.80;94.50;;;;;;5054247;28;20529;-80
2023/05/27 05:00:13;;;;;;;9.98;2.70;;;13.80;94.40;;;;;;5054384;28;20037;-79
2023/05/27 05:02:39;;;;;;;9.02;2.60;;;13.80;94.40;;;;;;5054333;28;20056;-79
2023/05/27 05:05:08;;;;;;;9.75;2.42;;;13.80;94.50;;;;;;5054615;28;20021;-80
2023/05/27 05:07:37;;;;;;;8.90;2.65;;;13.80;94.60;;;;;;5054323;28;20116;-80
2023/05/27 05:10:04;;;;;;;8.98;2.70;;;13.80;94.60;;;;;;5056083;28;20021;-79
2023/05/27 05:12:29;;;;;;;13.82;2.67;;;13.80;94.70;;;;;;5058012;28;20510;-78
2023/05/27 05:14:55;;;;;;;11.32;2.83;;;13.90;94.60;;;;;;5056012;28;20049;-78
2023/05/27 05:17:24;;;;;;;7.80;2.67;;;13.90;94.70;;;;;;5056109;28;20032;-78
2023/05/27 05:19:49;;;;;;;8.43;2.45;;;13.80;94.60;;;;;;5057345;28;20033;-77
2023/05/27 05:22:18;;;;;;;8.80;2.70;;;13.90;94.80;;;;;;5056364;28;20031;-78
2023/05/27 05:24:44;;;;;;;11.10;2.55;;;14.00;94.90;;;;;;5055963;28;20036;-78
2023/05/27 05:27:10;;;;;;;9.27;2.40;;;14.00;94.70;;;;;;5056948;28;20044;-78
2023/05/27 05:29:36;;;;;;;12.43;2.42;;;14.10;94.80;;;;;;5057283;28;20033;-77
2023/05/27 05:32:02;;;;;;;8.38;2.42;;;14.00;94.90;;;;;;5055978;28;20117;-79
2023/05/27 05:34:28;;;;;;;7.78;2.15;;;14.10;94.90;;;;;;5055975;28;20052;-77
2023/05/27 05:36:54;;;;;;;6.00;2.20;;;14.10;94.80;;;;;;5055732;28;20158;-77
2023/05/27 05:39:20;;;;;;;11.07;2.40;;;14.20;95.00;;;;;;5055017;28;20048;-78
2023/05/27 05:41:46;;;;;;;9.95;2.75;;;14.30;95.00;;;;;;5056121;28;20457;-78
2023/05/27 05:44:11;;;;;;;10.02;2.53;;;14.30;94.70;;;;;;5052720;28;20075;-79
2023/05/27 05:46:37;;;;;;;12.60;2.40;;;14.30;94.60;;;;;;5054486;28;20037;-79
2023/05/27 05:49:03;;;;;;;9.80;2.17;;;14.40;94.40;;;;;;5069842;28;20512;-81
2023/05/27 05:51:30;;;;;;;8.88;2.38;;;14.50;93.70;;;;;;5074376;28;20507;-80
2023/05/27 05:53:56;;;;;;;9.50;2.17;;;14.40;93.80;;;;;;5073179;28;20047;-80
2023/05/27 05:56:22;;;;;;;7.20;2.20;;;14.50;93.50;;;;;;5074353;28;20067;-80
2023/05/27 05:58:48;;;;;;;7.40;2.08;;;14.60;92.90;;;;;;5073464;28;20063;-81
2023/05/27 06:01:13;;;;;;;10.35;2.20;;;14.60;93.00;;;;;;5073774;28;20487;-81
2023/05/27 06:03:39;;;;;;;12.10;2.20;;;14.70;92.90;;;;;;5073017;28;20028;-81
2023/05/27 06:06:05;;;;;;;7.82;1.95;;;14.70;92.40;;;;;;5073997;28;20039;-81
2023/05/27 06:08:31;;;;;;;10.70;2.42;;;14.80;92.10;;;;;;5074066;28;20500;-80
2023/05/27 06:10:57;;;;;;;11.98;2.17;;;14.90;91.90;;;;;;5072563;28;20577;-81
2023/05/27 06:13:23;;;;;;;8.88;2.13;;;14.90;91.90;;;;;;5089277;28;20052;-81
2023/05/27 06:15:48;;;;;;;8.48;1.83;;;14.90;91.70;;;;;;5074088;28;20050;-81
2023/05/27 06:18:14;;;;;;;4.95;2.10;;;14.90;92.10;;;;;;5072536;28;20029;-81
2023/05/27 06:20:40;;;;;;;9.00;1.80;;;15.00;91.50;;;;;;5073136;28;20029;-81
2023/05/27 06:23:06;;;;;;;10.13;2.10;;;15.00;90.80;;;;;;5073573;28;20028;-81
2023/05/27 06:25:32;;;;;;;7.95;1.98;;;15.10;91.10;;;;;;5072863;28;20135;-81
2023/05/27 06:27:57;;;;;;;8.27;1.95;;;15.10;91.20;;;;;;5072904;28;20058;-81
2023/05/27 06:30:23;;;;;;;8.90;2.30;;;15.10;91.00;;;;;;5073415;28;20032;-81
2023/05/27 06:32:49;;;;;;;7.43;1.85;;;15.20;91.40;;;;;;5072818;28;20501;-81
2023/05/27 06:35:15;;;;;;;6.95;2.15;;;15.20;90.80;;;;;;5071678;28;20090;-80
2023/05/27 06:37:40;;;;;;;9.35;2.40;;;15.20;91.20;;;;;;5073186;28;20468;-80
2023/05/27 06:40:06;;;;;;;9.32;1.92;;;15.30;91.20;;;;;;5073857;28;20110;-79
2023/05/27 06:42:32;;;;;;;10.68;2.05;;;15.30;90.90;;;;;;5073302;28;20433;-79
2023/05/27 06:45:00;;;;;;;8.82;2.25;;;15.40;90.40;;;;;;5073638;28;20020;-79
2023/05/27 06:47:25;;;;;;;10.10;2.30;;;15.40;90.60;;;;;;5071657;28;20090;-79
2023/05/27 06:49:51;;;;;;;9.30;2.20;;;15.50;90.80;;;;;;5072163;28;20036;-79
2023/05/27 06:52:16;;;;;;;11.70;1.92;;;15.50;90.90;;;;;;5071382;28;20028;-81
2023/05/27 06:54:42;;;;;;;10.13;2.38;;;15.50;90.40;;;;;;5071965;28;20082;-79
2023/05/27 06:57:08;;;;;;;14.05;2.00;;;15.60;90.60;;;;;;5073416;28;20033;-80
2023/05/27 06:59:34;;;;;;;7.72;1.95;;;15.70;90.90;;;;;;5076275;28;20028;-79
2023/05/27 07:01:59;;;;;;;6.60;2.17;;;15.70;90.60;;;;;;5074911;28;20048;-81
2023/05/27 07:04:25;;;;;;;13.52;2.10;;;15.80;90.80;;;;;;5075329;28;20040;-80
2023/05/27 07:06:51;;;;;;;8.77;1.85;;;15.80;90.60;;;;;;5077325;28;20024;-79
2023/05/27 07:09:17;;;;;;;13.63;2.15;;;15.90;90.00;;;;;;5075776;28;20028;-79
2023/05/27 07:11:42;;;;;;;11.65;2.40;;;15.90;90.20;;;;;;5077243;28;20027;-79
2023/05/27 07:14:11;;;;;;;6.80;2.00;;;16.00;90.00;;;;;;5075789;28;20025;-79
2023/05/27 07:16:37;;;;;;;7.22;2.10;;;15.90;90.10;;;;;;5076596;28;20458;-79
2023/05/27 07:19:02;;;;;;;8.63;2.28;;;16.00;90.60;;;;;;5076135;28;20124;-79
2023/05/27 07:21:28;;;;;;;11.88;2.35;;;16.10;90.00;;;;;;5077400;28;20104;-80
2023/05/27 07:23:54;;;;;;;8.25;2.65;;;16.10;90.40;;;;;;5076225;28;20060;-79
2023/05/27 07:26:19;;;;;;;9.82;3.13;;;16.10;90.20;;;;;;5076992;28;20061;-80
2023/05/27 07:28:46;;;;;;;11.63;2.28;;;16.20;90.00;;;;;;5077199;28;20082;-79
2023/05/27 07:31:11;;;;;;;8.30;2.63;;;16.20;90.20;;;;;;5076685;28;20035;-79
2023/05/27 07:33:37;;;;;;;9.90;2.92;;;16.20;89.80;;;;;;5075924;28;20021;-79
2023/05/27 07:36:02;;;;;;;8.05;2.30;;;16.30;89.90;;;;;;5075795;28;20028;-80
2023/05/27 07:38:28;;;;;;;7.35;1.90;;;16.30;89.70;;;;;;5075274;28;20037;-80
2023/05/27 07:40:54;;;;;;;9.77;2.17;;;16.40;88.90;;;;;;5069247;28;20025;-80
2023/05/27 07:43:19;;;;;;;9.95;2.30;;;16.40;89.60;;;;;;5063133;28;20497;-80
2023/05/27 07:45:45;;;;;;;9.40;2.00;;;16.40;89.30;;;;;;5067394;28;20032;-80
2023/05/27 07:48:10;;;;;;;8.15;2.17;;;16.50;89.00;;;;;;5065439;28;20484;-80
2023/05/27 07:50:36;;;;;;;10.45;2.40;;;16.50;90.00;;;;;;5068386;28;20103;-80
2023/05/27 07:53:02;;;;;;;8.13;2.00;;;16.50;90.10;;;;;;5064290;28;20438;-79
2023/05/27 07:55:27;;;;;;;9.35;1.85;;;16.60;89.20;;;;;;5062343;28;20037;-81
2023/05/27 07:57:55;;;;;;;8.95;2.15;;;16.60;89.90;;;;;;5066223;28;20095;-80
2023/05/27 08:00:20;;;;;;;7.60;2.22;;;16.60;89.00;;;;;;5063944;28;20032;-79
2023/05/27 08:02:46;;;;;;;7.85;1.85;;;16.70;88.40;;;;;;5062972;28;20044;-79
2023/05/27 08:05:11;;;;;;;8.30;2.10;;;16.70;88.40;;;;;;5064776;28;20394;-80
2023/05/27 08:07:37;;;;;;;9.05;2.10;;;16.80;88.20;;;;;;5061746;28;20032;-80
2023/05/27 08:10:04;;;;;;;8.30;2.22;;;16.70;88.30;;;;;;5065069;28;20016;-79
2023/05/27 08:12:29;;;;;;;7.75;2.40;;;16.80;87.40;;;;;;5064475;28;20104;-79
2023/05/27 08:14:55;;;;;;;10.88;2.40;;;16.80;86.90;;;;;;5063474;28;20056;-81
2023/05/27 08:17:21;;;;;;;10.77;2.35;;;16.90;89.50;;;;;;5063277;28;20111;-80
2023/05/27 08:19:46;;;;;;;10.15;2.55;;;16.90;89.70;;;;;;5066110;28;20041;-81
2023/05/27 08:22:12;;;;;;;14.10;2.35;;;17.00;89.00;;;;;;5065480;28;20457;-80
2023/05/27 08:24:38;;;;;;;10.32;2.30;;;17.10;88.50;;;;;;5064900;28;20032;-79
2023/05/27 08:27:05;;;;;;;7.75;2.33;;;17.10;88.30;;;;;;5065536;28;20036;-79
2023/05/27 08:29:35;;;;;;;9.43;2.55;;;17.10;88.70;;;;;;5062671;28;20120;-81
2023/05/27 08:32:01;;;;;;;12.40;2.17;;;17.20;89.80;;;;;;5063526;28;20461;-79
2023/05/27 08:34:27;;;;;;;8.73;2.00;;;17.20;87.70;;;;;;5064092;28;20032;-80
2023/05/27 08:36:52;;;;;;;11.07;2.70;;;17.20;86.60;;;;;;5062228;28;20024;-80
2023/05/27 08:39:18;;;;;;;7.45;2.17;;;17.30;88.30;;;;;;5062987;28;20035;-82
2023/05/27 08:41:44;;;;;;;8.00;2.10;;;17.30;87.80;;;;;;5064955;28;20098;-82
2023/05/27 08:44:10;;;;;;;10.73;2.65;;;17.40;89.60;;;;;;5062674;28;20458;-81
2023/05/27 08:46:36;;;;;;;8.30;2.50;;;17.40;89.80;;;;;;5066766;28;20029;-83
2023/05/27 08:49:02;;;;;;;7.45;2.70;;;17.50;90.00;;;;;;5061374;28;20052;-83
2023/05/27 08:51:28;;;;;;;8.55;2.22;;;17.60;89.40;;;;;;5058836;28;20052;-84
2023/05/27 08:53:54;;;;;;;10.23;2.42;;;17.60;88.90;;;;;;5065303;28;20133;-83
2023/05/27 08:56:23;;;;;;;7.93;2.10;;;17.60;89.30;;;;;;5064474;28;20034;-83
2023/05/27 08:58:50;;;;;;;7.13;2.30;;;17.70;89.30;;;;;;5059935;28;20044;-83
2023/05/27 09:01:17;;;;;;;9.98;2.70;;;17.70;86.60;;;;;;5058009;28;20055;-81
2023/05/27 09:03:44;;;;;;;14.77;2.88;;;17.70;86.10;;;;;;5067586;28;20078;-83
2023/05/27 09:06:10;;;;;;;8.65;2.50;;;17.80;88.60;;;;;;5064616;28;20055;-84
2023/05/27 09:08:36;;;;;;;11.98;2.72;;;17.80;88.10;;;;;;5059015;28;20029;-84
2023/05/27 09:11:02;;;;;;;9.13;2.50;;;17.90;88.50;;;;;;5070204;28;20040;-83
2023/05/27 09:13:30;;;;;;;9.00;2.28;;;18.00;87.80;;;;;;5059631;28;20044;-82
2023/05/27 09:16:05;;;;;;;9.65;2.63;;;18.00;88.10;;;;;;5066346;28;20477;-82
2023/05/27 09:18:35;;;;;;;10.43;2.72;;;18.10;88.10;;;;;;5069081;28;20040;-82
2023/05/27 09:21:01;;;;;;;9.05;2.20;;;18.10;88.30;;;;;;5070874;28;20028;-82
2023/05/27 09:23:27;;;;;;;10.07;2.60;;;18.10;87.90;;;;;;5066057;28;20029;-82
2023/05/27 09:25:53;;;;;;;9.35;2.22;;;18.30;88.30;;;;;;5071891;28;20107;-85
2023/05/27 09:28:21;;;;;;;8.07;2.50;;;18.30;88.00;;;;;;5070949;28;20035;-83
2023/05/27 09:30:51;;;;;;;7.47;2.22;;;18.30;88.00;;;;;;5067346;28;20028;-84
2023/05/27 09:33:22;;;;;;;11.20;2.75;;;18.40;88.30;;;;;;5068776;28;20029;-85
2023/05/27 09:35:49;;;;;;;11.50;2.80;;;18.50;88.60;;;;;;5069804;28;20116;-83
2023/05/27 09:38:15;;;;;;;8.02;2.58;;;18.50;88.30;;;;;;5072263;28;20509;-85
2023/05/27 09:40:44;;;;;;;10.15;2.25;;;18.60;86.80;;;;;;5071744;28;20021;-83
2023/05/27 09:43:13;;;;;;;7.38;2.55;;;18.60;86.30;;;;;;5070407;28;20450;-83
2023/05/27 09:45:40;;;;;;;9.73;2.85;;;18.70;88.10;;;;;;5065888;28;20028;-82
2023/05/27 09:48:07;;;;;;;10.10;2.35;;;18.70;87.00;;;;;;5070348;28;20050;-83
2023/05/27 09:50:34;;;;;;;7.13;2.30;;;18.70;86.60;;;;;;5073672;28;20031;-84
2023/05/27 09:53:01;;;;;;;9.82;3.00;;;18.80;85.70;;;;;;5071091;28;20060;-83
2023/05/27 09:55:28;;;;;;;9.25;2.83;;;18.80;87.00;;;;;;5068605;28;20032;-83
2023/05/27 09:57:54;;;;;;;9.77;2.72;;;18.90;85.30;;;;;;5065971;28;20535;-84
2023/05/27 10:00:21;;;;;;;12.10;2.75;;;19.00;84.90;;;;;;5071471;28;20024;-88
2023/05/27 10:02:48;;;;;;;7.70;2.63;;;19.00;86.50;;;;;;5071784;28;20090;-88
2023/05/27 10:05:15;;;;;;;9.02;2.65;;;19.00;85.30;;;;;;5070761;28;20052;-85
2023/05/27 10:07:46;;;;;;;8.15;2.80;;;19.10;87.20;;;;;;5071465;28;20123;-84
2023/05/27 10:10:15;;;;;;;4.93;2.22;;;19.20;86.50;;;;;;5070604;28;20031;-84
2023/05/27 10:12:42;;;;;;;13.00;2.80;;;19.20;84.10;;;;;;5065545;28;20484;-84
2023/05/27 10:15:08;;;;;;;9.35;2.83;;;19.30;87.10;;;;;;5069234;28;20024;-86
2023/05/27 10:17:47;;;;;;;8.52;2.72;;;19.30;87.50;;;;;;5067066;28;20024;-84
2023/05/27 10:20:33;;;;;;;10.57;2.78;;;19.30;84.50;;;;;;5082279;28;20470;-86
2023/05/27 10:23:12;;;;;;;11.73;3.15;;;19.40;84.40;;;;;;5076646;28;20473;-84
2023/05/27 10:26:06;;;;;;;10.18;2.63;;;19.40;85.30;;;;;;5067023;28;20055;-87
2023/05/27 10:28:41;;;;;;;8.15;2.75;;;19.50;86.70;;;;;;5050451;28;20123;-85
2023/05/27 10:31:13;;;;;;;9.68;2.70;;;19.50;84.90;;;;;;5071520;28;20024;-88
2023/05/27 10:33:42;;;;;;;11.00;2.75;;;19.60;86.70;;;;;;5068068;28;20111;-85
2023/05/27 10:36:17;;;;;;;8.65;2.67;;;19.70;86.30;;;;;;5067299;28;20025;-88
2023/05/27 10:38:54;;;;;;;9.43;2.83;;;19.80;84.40;;;;;;5062236;28;20124;-87
2023/05/27 10:41:20;;;;;;;7.72;2.53;;;19.80;85.90;;;;;;5057228;28;20021;-86
2023/05/27 10:43:57;;;;;;;9.93;2.80;;;19.90;86.60;;;;;;5081399;28;20031;-85
2023/05/27 10:46:24;;;;;;;9.00;2.80;;;19.90;84.60;;;;;;5062924;28;20116;-86
2023/05/27 10:48:50;;;;;;;8.45;3.05;;;20.00;84.20;;;;;;5073136;28;20028;-86
2023/05/27 10:51:15;;;;;;;8.57;2.75;;;20.00;85.90;;;;;;5073156;28;20488;-86
2023/05/27 10:53:41;;;;;;;6.70;2.92;;;20.10;84.30;;;;;;5085376;28;20033;-85
2023/05/27 10:56:10;;;;;;;8.00;3.00;;;20.10;82.60;;;;;;5082267;28;20131;-83
2023/05/27 10:58:38;;;;;;;8.23;3.20;;;20.10;85.50;;;;;;5071311;28;20043;-81
2023/05/27 11:01:13;;;;;;;8.15;3.45;;;20.30;84.30;;;;;;5071449;28;20462;-81
2023/05/27 11:03:45;;;;;;;8.32;2.90;;;20.30;84.10;;;;;;5072445;28;20082;-82
2023/05/27 11:06:12;;;;;;;9.60;3.50;;;20.40;85.80;;;;;;5075854;28;20024;-82
2023/05/27 11:08:38;;;;;;;11.98;3.33;;;20.50;85.30;;;;;;5068357;28;20086;-81
2023/05/27 11:11:09;;;;;;;7.43;2.90;;;20.60;85.10;;;;;;5067754;28;20025;-81
2023/05/27 11:13:38;;;;;;;8.98;2.60;;;20.70;84.80;;;;;;5071531;28;20051;-83
2023/05/27 11:16:06;;;;;;;9.38;2.60;;;20.80;85.90;;;;;;5089372;28;20060;-83
2023/05/27 11:18:39;;;;;;;8.68;2.83;;;20.90;86.10;;;;;;5074052;28;20042;-81
2023/05/27 11:21:06;;;;;;;7.15;2.75;;;21.00;84.70;;;;;;5073610;28;20024;-82
2023/05/27 11:23:40;;;;;;;9.23;2.90;;;21.10;86.00;;;;;;5074111;28;20457;-82
2023/05/27 11:26:16;;;;;;;7.97;3.03;;;21.10;85.00;;;;;;5071317;28;20033;-82
2023/05/27 11:28:54;;;;;;;9.15;2.80;;;21.20;83.50;;;;;;5070047;28;20032;-81
2023/05/27 11:31:21;;;;;;;6.18;3.17;;;21.20;81.60;;;;;;5082739;28;20092;-82
2023/05/27 11:33:49;;;;;;;10.18;2.88;;;21.30;83.20;;;;;;5055185;28;20025;-82
2023/05/27 11:36:16;;;;;;;8.38;2.70;;;21.30;81.40;;;;;;5066424;28;20050;-83
2023/05/27 11:38:58;;;;;;;9.05;3.17;;;21.40;82.30;;;;;;5088819;28;20041;-88
2023/05/27 11:41:28;;;;;;;7.72;2.38;;;21.50;84.10;;;;;;5076221;28;20016;-81
2023/05/27 11:43:57;;;;;;;6.57;2.85;;;21.50;82.90;;;;;;5065321;28;20422;-85
2023/05/27 11:46:32;;;;;;;9.15;3.30;;;21.70;83.30;;;;;;5060849;28;20055;-87
2023/05/27 11:48:58;;;;;;;11.60;3.08;;;21.70;81.30;;;;;;5057958;28;20028;-85
2023/05/27 11:51:28;;;;;;;6.35;2.78;;;21.80;81.50;;;;;;5074692;28;20377;-85
2023/05/27 11:53:54;;;;;;;9.80;3.20;;;21.90;82.80;;;;;;5066263;28;20033;-85
2023/05/27 11:56:20;;;;;;;10.07;3.15;;;22.00;82.90;;;;;;5067253;28;20550;-85
2023/05/27 11:58:45;;;;;;;5.18;2.90;;;22.10;82.40;;;;;;5058995;28;20076;-87
2023/05/27 12:01:11;;;;;;;9.85;3.30;;;22.20;80.90;;;;;;5090782;28;20135;-85
2023/05/27 12:03:37;;;;;;;8.02;3.20;;;22.30;78.90;;;;;;5076175;28;20068;-86
2023/05/27 12:06:03;;;;;;;9.07;3.10;;;22.30;79.00;;;;;;5064899;28;20473;-85
2023/05/27 12:08:29;;;;;;;8.52;2.95;;;22.40;79.50;;;;;;5071169;28;20033;-85
2023/05/27 12:10:54;;;;;;;6.90;2.65;;;22.50;81.60;;;;;;5059026;28;20032;-86
2023/05/27 12:13:21;;;;;;;4.90;2.47;;;22.70;80.30;;;;;;5071657;28;20020;-83
2023/05/27 12:15:50;;;;;;;9.38;3.22;;;22.70;79.00;;;;;;5068544;28;20024;-83
2023/05/27 12:18:16;;;;;;;5.93;2.60;;;22.70;76.20;;;;;;5062130;28;20037;-83
2023/05/27 12:20:42;;;;;;;9.18;3.38;;;22.90;80.70;;;;;;5067597;28;20028;-83
2023/05/27 12:23:07;;;;;;;6.88;2.92;;;23.00;78.90;;;;;;5066338;28;20074;-83
2023/05/27 12:25:33;;;;;;;6.13;3.05;;;23.00;76.90;;;;;;5066826;28;20032;-83
2023/05/27 12:27:58;;;;;;;9.85;2.92;;;23.10;77.70;;;;;;5070654;28;20086;-82
2023/05/27 12:30:24;;;;;;;7.85;3.17;;;23.30;78.60;;;;;;5072588;28;20065;-82
2023/05/27 12:32:49;;;;;;;7.38;2.88;;;23.40;77.20;;;;;;5071667;28;20446;-83
2023/05/27 12:35:15;;;;;;;6.20;2.75;;;23.50;77.60;;;;;;5069732;28;20035;-83
2023/05/27 12:37:41;;;;;;;6.93;2.78;;;23.60;76.70;;;;;;5061448;28;20381;-86
2023/05/27 12:40:09;;;;;;;7.95;2.83;;;23.80;77.00;;;;;;5063318;28;20033;-84
2023/05/27 12:42:34;;;;;;;6.55;2.70;;;23.90;75.80;;;;;;5068141;28;20531;-83